sensor_id;sensor_type;location;lat;lon;timestamp;temperature;humidity
2391;DHT22;22957;50.824;4.360;2024-03-17T00:01:44;11.30;99.90
2391;DHT22;22957;50.824;4.360;2024-03-17T00:04:10;11.00;99.90
2391;DHT22;22957;50.824;4.360;2024-03-17T00:06:35;10.90;99.90
2391;DHT22;22957;50.824;4.360;2024-03-17T00:09:01;11.00;99.90
2391;DHT22;22957;50.824;4.360;2024-03-17T00:11:32;10.80;99.90
2391;DHT22;22957;50.824;4.360;2024-03-17T00:13:58;11.00;99.90
2391;DHT22;22957;50.824;4.360;2024-03-17T00:16:24;10.80;99.90
2391;DHT22;22957;50.824;4.360;2024-03-17T00:18:49;11.40;99.90
2391;DHT22;22957;50.824;4.360;2024-03-17T00:21:15;10.90;99.90
2391;DHT22;22957;50.824;4.360;2024-03-17T00:23:40;10.50;99.90
2391;DHT22;22957;50.824;4.360;2024-03-17T00:26:07;10.90;99.90
2391;DHT22;22957;50.824;4.360;2024-03-17T00:28:33;11.10;99.90
2391;DHT22;22957;50.824;4.360;2024-03-17T00:30:58;11.00;99.90
2391;DHT22;22957;50.824;4.360;2024-03-17T00:33:24;10.80;99.90
2391;DHT22;22957;50.824;4.360;2024-03-17T00:35:50;11.00;99.90
2391;DHT22;22957;50.824;4.360;2024-03-17T00:38:16;11.00;99.90
2391;DHT22;22957;50.824;4.360;2024-03-17T00:40:42;11.00;99.90
2391;DHT22;22957;50.824;4.360;2024-03-17T00:43:07;10.80;99.90
2391;DHT22;22957;50.824;4.360;2024-03-17T00:45:33;10.90;99.90
2391;DHT22;22957;50.824;4.360;2024-03-17T00:47:59;10.80;99.90
2391;DHT22;22957;50.824;4.360;2024-03-17T00:50:24;10.90;99.90
2391;DHT22;22957;50.824;4.360;2024-03-17T00:52:50;10.80;99.90
2391;DHT22;22957;50.824;4.360;2024-03-17T00:55:16;11.20;99.90
2391;DHT22;22957;50.824;4.360;2024-03-17T00:57:42;11.10;99.90
2391;DHT22;22957;50.824;4.360;2024-03-17T01:00:08;11.40;99.90
2391;DHT22;22957;50.824;4.360;2024-03-17T01:02:37;10.90;99.90
2391;DHT22;22957;50.824;4.360;2024-03-17T01:05:03;11.10;99.90
2391;DHT22;22957;50.824;4.360;2024-03-17T01:07:33;11.20;99.90
2391;DHT22;22957;50.824;4.360;2024-03-17T01:09:58;11.20;99.90
2391;DHT22;22957;50.824;4.360;2024-03-17T01:12:24;11.40;99.90
2391;DHT22;22957;50.824;4.360;2024-03-17T01:14:50;11.00;99.90
2391;DHT22;22957;50.824;4.360;2024-03-17T01:17:16;11.00;99.90
2391;DHT22;22957;50.824;4.360;2024-03-17T01:19:44;10.90;99.90
2391;DHT22;22957;50.824;4.360;2024-03-17T01:22:10;11.50;99.90
2391;DHT22;22957;50.824;4.360;2024-03-17T01:24:35;11.10;99.90
2391;DHT22;22957;50.824;4.360;2024-03-17T01:27:01;11.20;99.90
2391;DHT22;22957;50.824;4.360;2024-03-17T01:29:27;10.90;99.90
2391;DHT22;22957;50.824;4.360;2024-03-17T01:31:53;11.40;99.90
2391;DHT22;22957;50.824;4.360;2024-03-17T01:34:19;10.80;99.90
2391;DHT22;22957;50.824;4.360;2024-03-17T01:36:45;10.80;99.90
2391;DHT22;22957;50.824;4.360;2024-03-17T01:39:10;11.10;99.90
2391;DHT22;22957;50.824;4.360;2024-03-17T01:41:37;10.80;99.90
2391;DHT22;22957;50.824;4.360;2024-03-17T01:44:02;11.20;99.90
2391;DHT22;22957;50.824;4.360;2024-03-17T01:46:28;11.40;99.90
2391;DHT22;22957;50.824;4.360;2024-03-17T01:48:54;11.50;99.90
2391;DHT22;22957;50.824;4.360;2024-03-17T01:51:21;11.30;99.90
2391;DHT22;22957;50.824;4.360;2024-03-17T01:53:48;11.10;99.90
2391;DHT22;22957;50.824;4.360;2024-03-17T01:56:16;11.10;99.90
2391;DHT22;22957;50.824;4.360;2024-03-17T01:58:44;11.50;99.90
2391;DHT22;22957;50.824;4.360;2024-03-17T02:01:11;11.30;99.90
2391;DHT22;22957;50.824;4.360;2024-03-17T02:03:40;11.20;99.90
2391;DHT22;22957;50.824;4.360;2024-03-17T02:06:06;11.20;99.90
2391;DHT22;22957;50.824;4.360;2024-03-17T02:08:53;11.10;99.90
2391;DHT22;22957;50.824;4.360;2024-03-17T02:11:30;11.30;99.90
2391;DHT22;22957;50.824;4.360;2024-03-17T02:13:57;11.10;99.90
2391;DHT22;22957;50.824;4.360;2024-03-17T02:16:23;11.40;99.90
2391;DHT22;22957;50.824;4.360;2024-03-17T02:18:53;11.10;99.90
2391;DHT22;22957;50.824;4.360;2024-03-17T02:21:20;11.50;99.90
2391;DHT22;22957;50.824;4.360;2024-03-17T02:23:48;11.40;99.90
2391;DHT22;22957;50.824;4.360;2024-03-17T02:26:14;11.20;99.90
2391;DHT22;22957;50.824;4.360;2024-03-17T02:28:44;11.10;99.90
2391;DHT22;22957;50.824;4.360;2024-03-17T02:31:11;11.30;99.90
2391;DHT22;22957;50.824;4.360;2024-03-17T02:33:37;11.20;99.90
2391;DHT22;22957;50.824;4.360;2024-03-17T02:36:04;11.10;99.90
2391;DHT22;22957;50.824;4.360;2024-03-17T02:38:33;11.40;99.90
2391;DHT22;22957;50.824;4.360;2024-03-17T02:41:17;11.30;99.90
2391;DHT22;22957;50.824;4.360;2024-03-17T02:43:44;11.30;99.90
2391;DHT22;22957;50.824;4.360;2024-03-17T02:46:14;11.30;99.90
2391;DHT22;22957;50.824;4.360;2024-03-17T02:48:41;11.60;99.90
2391;DHT22;22957;50.824;4.360;2024-03-17T02:51:11;11.70;99.90
2391;DHT22;22957;50.824;4.360;2024-03-17T02:53:38;12.10;99.90
2391;DHT22;22957;50.824;4.360;2024-03-17T02:56:05;11.50;99.90
2391;DHT22;22957;50.824;4.360;2024-03-17T02:58:33;11.80;99.90
2391;DHT22;22957;50.824;4.360;2024-03-17T03:00:59;11.60;99.90
2391;DHT22;22957;50.824;4.360;2024-03-17T03:03:24;11.40;99.90
2391;DHT22;22957;50.824;4.360;2024-03-17T03:05:50;11.40;99.90
2391;DHT22;22957;50.824;4.360;2024-03-17T03:08:17;11.20;99.90
2391;DHT22;22957;50.824;4.360;2024-03-17T03:10:44;11.30;99.90
2391;DHT22;22957;50.824;4.360;2024-03-17T03:13:10;11.50;99.90
2391;DHT22;22957;50.824;4.360;2024-03-17T03:15:36;11.50;99.90
2391;DHT22;22957;50.824;4.360;2024-03-17T03:18:02;11.60;99.90
2391;DHT22;22957;50.824;4.360;2024-03-17T03:20:27;11.40;99.90
2391;DHT22;22957;50.824;4.360;2024-03-17T03:22:53;11.20;99.90
2391;DHT22;22957;50.824;4.360;2024-03-17T03:25:19;11.10;99.90
2391;DHT22;22957;50.824;4.360;2024-03-17T03:27:45;11.40;99.90
2391;DHT22;22957;50.824;4.360;2024-03-17T03:30:11;11.20;99.90
2391;DHT22;22957;50.824;4.360;2024-03-17T03:32:37;11.30;99.90
2391;DHT22;22957;50.824;4.360;2024-03-17T03:35:04;11.00;99.90
2391;DHT22;22957;50.824;4.360;2024-03-17T03:37:31;11.10;99.90
2391;DHT22;22957;50.824;4.360;2024-03-17T03:39:57;10.80;99.90
2391;DHT22;22957;50.824;4.360;2024-03-17T03:42:24;11.20;99.90
2391;DHT22;22957;50.824;4.360;2024-03-17T03:44:49;10.80;99.90
2391;DHT22;22957;50.824;4.360;2024-03-17T03:47:15;11.20;99.90
2391;DHT22;22957;50.824;4.360;2024-03-17T03:49:41;10.90;99.90
2391;DHT22;22957;50.824;4.360;2024-03-17T03:52:06;11.00;99.90
2391;DHT22;22957;50.824;4.360;2024-03-17T03:54:33;10.80;99.90
2391;DHT22;22957;50.824;4.360;2024-03-17T03:56:59;10.70;99.90
2391;DHT22;22957;50.824;4.360;2024-03-17T03:59:25;10.70;99.90
2391;DHT22;22957;50.824;4.360;2024-03-17T04:01:50;10.80;99.90
2391;DHT22;22957;50.824;4.360;2024-03-17T04:04:16;10.70;99.90
2391;DHT22;22957;50.824;4.360;2024-03-17T04:06:42;10.50;99.90
2391;DHT22;22957;50.824;4.360;2024-03-17T04:09:07;10.60;99.90
2391;DHT22;22957;50.824;4.360;2024-03-17T04:11:34;10.80;99.90
2391;DHT22;22957;50.824;4.360;2024-03-17T04:14:01;10.90;99.90
2391;DHT22;22957;50.824;4.360;2024-03-17T04:16:27;10.50;99.90
2391;DHT22;22957;50.824;4.360;2024-03-17T04:18:53;10.90;99.90
2391;DHT22;22957;50.824;4.360;2024-03-17T04:21:19;11.20;99.90
2391;DHT22;22957;50.824;4.360;2024-03-17T04:23:46;10.70;99.90
2391;DHT22;22957;50.824;4.360;2024-03-17T04:26:12;10.70;99.90
2391;DHT22;22957;50.824;4.360;2024-03-17T04:28:38;10.80;99.90
2391;DHT22;22957;50.824;4.360;2024-03-17T04:31:07;10.90;99.90
2391;DHT22;22957;50.824;4.360;2024-03-17T04:33:33;11.00;99.90
2391;DHT22;22957;50.824;4.360;2024-03-17T04:36:00;10.70;99.90
2391;DHT22;22957;50.824;4.360;2024-03-17T04:38:26;10.90;99.90
2391;DHT22;22957;50.824;4.360;2024-03-17T04:40:53;10.40;99.90
2391;DHT22;22957;50.824;4.360;2024-03-17T04:43:24;10.70;99.90
2391;DHT22;22957;50.824;4.360;2024-03-17T04:46:02;10.40;99.90
2391;DHT22;22957;50.824;4.360;2024-03-17T04:48:30;10.90;99.90
2391;DHT22;22957;50.824;4.360;2024-03-17T04:50:55;10.40;99.90
2391;DHT22;22957;50.824;4.360;2024-03-17T04:53:21;10.50;99.90
2391;DHT22;22957;50.824;4.360;2024-03-17T04:55:47;10.60;99.90
2391;DHT22;22957;50.824;4.360;2024-03-17T04:58:12;10.70;99.90
2391;DHT22;22957;50.824;4.360;2024-03-17T05:00:38;10.90;99.90
2391;DHT22;22957;50.824;4.360;2024-03-17T05:03:04;10.80;99.90
2391;DHT22;22957;50.824;4.360;2024-03-17T05:05:29;10.70;99.90
2391;DHT22;22957;50.824;4.360;2024-03-17T05:07:55;10.70;99.90
2391;DHT22;22957;50.824;4.360;2024-03-17T05:10:20;10.60;99.90
2391;DHT22;22957;50.824;4.360;2024-03-17T05:12:46;10.40;99.90
2391;DHT22;22957;50.824;4.360;2024-03-17T05:15:13;10.70;99.90
2391;DHT22;22957;50.824;4.360;2024-03-17T05:17:39;10.70;99.90
2391;DHT22;22957;50.824;4.360;2024-03-17T05:20:05;10.60;99.90
2391;DHT22;22957;50.824;4.360;2024-03-17T05:22:31;10.90;99.90
2391;DHT22;22957;50.824;4.360;2024-03-17T05:24:57;10.90;99.90
2391;DHT22;22957;50.824;4.360;2024-03-17T05:27:22;10.60;99.90
2391;DHT22;22957;50.824;4.360;2024-03-17T05:29:48;10.90;99.90
2391;DHT22;22957;50.824;4.360;2024-03-17T05:32:15;11.20;99.90
2391;DHT22;22957;50.824;4.360;2024-03-17T05:34:41;11.20;99.90
2391;DHT22;22957;50.824;4.360;2024-03-17T05:37:08;11.10;99.90
2391;DHT22;22957;50.824;4.360;2024-03-17T05:39:34;11.00;99.90
2391;DHT22;22957;50.824;4.360;2024-03-17T05:41:59;11.00;99.90
2391;DHT22;22957;50.824;4.360;2024-03-17T05:44:25;10.90;99.90
2391;DHT22;22957;50.824;4.360;2024-03-17T05:46:50;11.10;99.90
2391;DHT22;22957;50.824;4.360;2024-03-17T05:49:19;11.30;99.90
2391;DHT22;22957;50.824;4.360;2024-03-17T05:51:46;11.30;99.90
2391;DHT22;22957;50.824;4.360;2024-03-17T05:54:12;11.40;99.90
2391;DHT22;22957;50.824;4.360;2024-03-17T05:56:37;10.90;99.90
2391;DHT22;22957;50.824;4.360;2024-03-17T05:59:03;11.20;99.90
2391;DHT22;22957;50.824;4.360;2024-03-17T06:01:28;11.20;99.90
2391;DHT22;22957;50.824;4.360;2024-03-17T06:03:54;11.40;99.90
2391;DHT22;22957;50.824;4.360;2024-03-17T06:06:19;11.20;99.90
2391;DHT22;22957;50.824;4.360;2024-03-17T06:08:45;11.40;99.90
2391;DHT22;22957;50.824;4.360;2024-03-17T06:11:11;11.20;99.90
2391;DHT22;22957;50.824;4.360;2024-03-17T06:13:36;11.60;99.90
2391;DHT22;22957;50.824;4.360;2024-03-17T06:16:03;11.40;99.90
2391;DHT22;22957;50.824;4.360;2024-03-17T06:18:29;11.20;99.90
2391;DHT22;22957;50.824;4.360;2024-03-17T06:20:54;11.20;99.90
2391;DHT22;22957;50.824;4.360;2024-03-17T06:23:23;11.20;99.90
2391;DHT22;22957;50.824;4.360;2024-03-17T06:25:49;11.30;99.90
2391;DHT22;22957;50.824;4.360;2024-03-17T06:28:16;11.40;99.90
2391;DHT22;22957;50.824;4.360;2024-03-17T06:30:46;11.20;99.90
2391;DHT22;22957;50.824;4.360;2024-03-17T06:33:19;11.60;99.90
2391;DHT22;22957;50.824;4.360;2024-03-17T06:35:45;11.80;99.90
2391;DHT22;22957;50.824;4.360;2024-03-17T06:38:12;11.20;99.90
2391;DHT22;22957;50.824;4.360;2024-03-17T06:40:38;11.30;99.90
2391;DHT22;22957;50.824;4.360;2024-03-17T06:43:05;11.80;99.90
2391;DHT22;22957;50.824;4.360;2024-03-17T06:45:31;11.60;99.90
2391;DHT22;22957;50.824;4.360;2024-03-17T06:47:57;12.00;99.90
2391;DHT22;22957;50.824;4.360;2024-03-17T06:50:22;11.80;99.90
2391;DHT22;22957;50.824;4.360;2024-03-17T06:52:48;12.10;99.90
2391;DHT22;22957;50.824;4.360;2024-03-17T06:55:14;12.10;99.90
2391;DHT22;22957;50.824;4.360;2024-03-17T06:57:42;12.10;99.90
2391;DHT22;22957;50.824;4.360;2024-03-17T07:00:12;12.00;99.90
2391;DHT22;22957;50.824;4.360;2024-03-17T07:02:42;12.10;99.90
2391;DHT22;22957;50.824;4.360;2024-03-17T07:05:11;12.30;99.90
2391;DHT22;22957;50.824;4.360;2024-03-17T07:07:40;12.80;99.90
2391;DHT22;22957;50.824;4.360;2024-03-17T07:10:05;12.30;99.90
2391;DHT22;22957;50.824;4.360;2024-03-17T07:12:31;12.70;99.90
2391;DHT22;22957;50.824;4.360;2024-03-17T07:14:57;13.10;99.90
2391;DHT22;22957;50.824;4.360;2024-03-17T07:17:22;13.20;99.90
2391;DHT22;22957;50.824;4.360;2024-03-17T07:19:48;12.80;99.90
2391;DHT22;22957;50.824;4.360;2024-03-17T07:22:14;13.10;99.90
2391;DHT22;22957;50.824;4.360;2024-03-17T07:24:40;12.80;99.90
2391;DHT22;22957;50.824;4.360;2024-03-17T07:27:06;12.80;99.90
2391;DHT22;22957;50.824;4.360;2024-03-17T07:29:35;12.30;99.90
2391;DHT22;22957;50.824;4.360;2024-03-17T07:32:01;12.60;99.90
2391;DHT22;22957;50.824;4.360;2024-03-17T07:34:30;12.40;99.90
2391;DHT22;22957;50.824;4.360;2024-03-17T07:36:56;12.30;99.90
2391;DHT22;22957;50.824;4.360;2024-03-17T07:39:22;12.40;99.90
2391;DHT22;22957;50.824;4.360;2024-03-17T07:41:47;12.30;99.90
2391;DHT22;22957;50.824;4.360;2024-03-17T07:44:13;12.30;99.90
2391;DHT22;22957;50.824;4.360;2024-03-17T07:46:39;12.40;99.90
2391;DHT22;22957;50.824;4.360;2024-03-17T07:49:04;12.60;99.90
2391;DHT22;22957;50.824;4.360;2024-03-17T07:51:30;13.10;99.90
2391;DHT22;22957;50.824;4.360;2024-03-17T07:53:56;13.50;99.90
2391;DHT22;22957;50.824;4.360;2024-03-17T07:56:21;13.40;99.90
2391;DHT22;22957;50.824;4.360;2024-03-17T07:58:47;13.30;99.90
2391;DHT22;22957;50.824;4.360;2024-03-17T08:01:15;13.70;99.90
2391;DHT22;22957;50.824;4.360;2024-03-17T08:03:45;14.10;99.90
2391;DHT22;22957;50.824;4.360;2024-03-17T08:06:11;13.80;99.90
2391;DHT22;22957;50.824;4.360;2024-03-17T08:08:36;14.20;99.90
2391;DHT22;22957;50.824;4.360;2024-03-17T08:11:02;13.90;99.90
2391;DHT22;22957;50.824;4.360;2024-03-17T08:13:29;14.20;99.90
2391;DHT22;22957;50.824;4.360;2024-03-17T08:16:00;14.40;99.90
2391;DHT22;22957;50.824;4.360;2024-03-17T08:18:26;14.60;99.90
2391;DHT22;22957;50.824;4.360;2024-03-17T08:20:55;14.70;99.90
2391;DHT22;22957;50.824;4.360;2024-03-17T08:23:24;14.70;99.90
2391;DHT22;22957;50.824;4.360;2024-03-17T08:25:57;14.80;99.90
2391;DHT22;22957;50.824;4.360;2024-03-17T08:28:24;14.50;99.90
2391;DHT22;22957;50.824;4.360;2024-03-17T08:30:57;14.70;99.90
2391;DHT22;22957;50.824;4.360;2024-03-17T08:33:23;15.20;99.90
2391;DHT22;22957;50.824;4.360;2024-03-17T08:35:59;15.30;99.90
2391;DHT22;22957;50.824;4.360;2024-03-17T08:38:25;14.90;99.90
2391;DHT22;22957;50.824;4.360;2024-03-17T08:40:52;14.70;99.90
2391;DHT22;22957;50.824;4.360;2024-03-17T08:43:19;14.60;99.90
2391;DHT22;22957;50.824;4.360;2024-03-17T08:45:45;14.70;99.90
2391;DHT22;22957;50.824;4.360;2024-03-17T08:48:11;14.70;99.90
2391;DHT22;22957;50.824;4.360;2024-03-17T08:50:37;14.90;99.90
2391;DHT22;22957;50.824;4.360;2024-03-17T08:53:03;14.40;99.90
2391;DHT22;22957;50.824;4.360;2024-03-17T08:55:28;14.60;99.90
2391;DHT22;22957;50.824;4.360;2024-03-17T08:57:54;15.00;99.90
2391;DHT22;22957;50.824;4.360;2024-03-17T09:00:20;15.00;99.90
2391;DHT22;22957;50.824;4.360;2024-03-17T09:02:45;15.00;99.90
2391;DHT22;22957;50.824;4.360;2024-03-17T09:05:11;15.00;99.90
2391;DHT22;22957;50.824;4.360;2024-03-17T09:07:38;15.00;99.90
2391;DHT22;22957;50.824;4.360;2024-03-17T09:10:04;15.40;99.90
2391;DHT22;22957;50.824;4.360;2024-03-17T09:12:30;15.60;99.90
2391;DHT22;22957;50.824;4.360;2024-03-17T09:14:56;15.90;99.90
2391;DHT22;22957;50.824;4.360;2024-03-17T09:17:21;15.90;99.90
2391;DHT22;22957;50.824;4.360;2024-03-17T09:19:47;16.40;99.90
2391;DHT22;22957;50.824;4.360;2024-03-17T09:22:13;16.60;99.90
2391;DHT22;22957;50.824;4.360;2024-03-17T09:24:39;16.30;99.90
2391;DHT22;22957;50.824;4.360;2024-03-17T09:27:06;16.20;99.90
2391;DHT22;22957;50.824;4.360;2024-03-17T09:29:31;16.00;99.90
2391;DHT22;22957;50.824;4.360;2024-03-17T09:31:58;15.90;99.90
2391;DHT22;22957;50.824;4.360;2024-03-17T09:34:24;16.00;99.90
2391;DHT22;22957;50.824;4.360;2024-03-17T09:36:49;15.80;99.90
2391;DHT22;22957;50.824;4.360;2024-03-17T09:39:16;16.20;99.90
2391;DHT22;22957;50.824;4.360;2024-03-17T09:41:41;16.20;99.90
2391;DHT22;22957;50.824;4.360;2024-03-17T09:44:11;16.00;99.90
2391;DHT22;22957;50.824;4.360;2024-03-17T09:46:38;16.00;99.90
2391;DHT22;22957;50.824;4.360;2024-03-17T09:49:04;15.60;99.90
2391;DHT22;22957;50.824;4.360;2024-03-17T09:51:30;15.70;99.90
2391;DHT22;22957;50.824;4.360;2024-03-17T09:53:57;15.70;99.90
2391;DHT22;22957;50.824;4.360;2024-03-17T09:56:23;15.90;99.90
2391;DHT22;22957;50.824;4.360;2024-03-17T09:58:51;15.40;99.90
2391;DHT22;22957;50.824;4.360;2024-03-17T10:01:17;15.70;99.90
2391;DHT22;22957;50.824;4.360;2024-03-17T10:03:50;15.60;99.90
2391;DHT22;22957;50.824;4.360;2024-03-17T10:06:25;15.80;99.90
2391;DHT22;22957;50.824;4.360;2024-03-17T10:09:01;15.70;99.90
2391;DHT22;22957;50.824;4.360;2024-03-17T10:11:35;15.50;99.90
2391;DHT22;22957;50.824;4.360;2024-03-17T10:14:07;15.70;99.90
2391;DHT22;22957;50.824;4.360;2024-03-17T10:16:37;15.90;99.90
2391;DHT22;22957;50.824;4.360;2024-03-17T10:19:10;15.90;99.90
2391;DHT22;22957;50.824;4.360;2024-03-17T10:21:37;15.90;99.90
2391;DHT22;22957;50.824;4.360;2024-03-17T10:26:46;16.10;99.90
2391;DHT22;22957;50.824;4.360;2024-03-17T10:31:54;16.30;99.90
2391;DHT22;22957;50.824;4.360;2024-03-17T10:34:20;16.40;99.90
2391;DHT22;22957;50.824;4.360;2024-03-17T10:36:46;16.30;99.90
2391;DHT22;22957;50.824;4.360;2024-03-17T10:39:26;16.40;99.90
2391;DHT22;22957;50.824;4.360;2024-03-17T10:42:02;16.30;99.90
2391;DHT22;22957;50.824;4.360;2024-03-17T10:44:29;16.20;99.90
2391;DHT22;22957;50.824;4.360;2024-03-17T10:46:56;16.20;99.90
2391;DHT22;22957;50.824;4.360;2024-03-17T10:49:33;16.20;99.90
2391;DHT22;22957;50.824;4.360;2024-03-17T10:52:04;16.40;99.90
2391;DHT22;22957;50.824;4.360;2024-03-17T10:54:31;16.50;99.90
2391;DHT22;22957;50.824;4.360;2024-03-17T10:59:47;16.40;99.90
2391;DHT22;22957;50.824;4.360;2024-03-17T11:02:23;16.30;99.90
2391;DHT22;22957;50.824;4.360;2024-03-17T11:04:52;16.20;99.90
2391;DHT22;22957;50.824;4.360;2024-03-17T11:07:19;16.20;99.90
2391;DHT22;22957;50.824;4.360;2024-03-17T11:09:46;16.60;99.90
2391;DHT22;22957;50.824;4.360;2024-03-17T11:15:35;17.00;99.90
2391;DHT22;22957;50.824;4.360;2024-03-17T11:20:42;17.80;99.90
2391;DHT22;22957;50.824;4.360;2024-03-17T11:23:08;17.80;99.90
2391;DHT22;22957;50.824;4.360;2024-03-17T11:25:37;17.90;99.90
2391;DHT22;22957;50.824;4.360;2024-03-17T11:28:04;18.40;99.90
2391;DHT22;22957;50.824;4.360;2024-03-17T11:30:48;17.80;99.90
2391;DHT22;22957;50.824;4.360;2024-03-17T11:38:54;18.70;99.90
2391;DHT22;22957;50.824;4.360;2024-03-17T11:41:40;19.00;99.90
2391;DHT22;22957;50.824;4.360;2024-03-17T11:46:44;19.30;99.90
2391;DHT22;22957;50.824;4.360;2024-03-17T11:49:27;20.00;99.90
2391;DHT22;22957;50.824;4.360;2024-03-17T11:51:57;20.60;99.90
2391;DHT22;22957;50.824;4.360;2024-03-17T11:54:26;20.60;99.90
2391;DHT22;22957;50.824;4.360;2024-03-17T11:57:00;20.70;99.90
2391;DHT22;22957;50.824;4.360;2024-03-17T11:59:26;19.50;99.90
2391;DHT22;22957;50.824;4.360;2024-03-17T12:01:52;18.10;99.90
2391;DHT22;22957;50.824;4.360;2024-03-17T12:04:22;18.80;99.90
2391;DHT22;22957;50.824;4.360;2024-03-17T12:06:56;19.30;99.90
2391;DHT22;22957;50.824;4.360;2024-03-17T12:09:26;20.00;99.90
2391;DHT22;22957;50.824;4.360;2024-03-17T12:12:06;19.90;99.90
2391;DHT22;22957;50.824;4.360;2024-03-17T12:14:35;19.90;99.90
2391;DHT22;22957;50.824;4.360;2024-03-17T12:17:03;19.70;99.90
2391;DHT22;22957;50.824;4.360;2024-03-17T12:19:29;19.30;99.90
2391;DHT22;22957;50.824;4.360;2024-03-17T12:21:57;19.30;99.90
2391;DHT22;22957;50.824;4.360;2024-03-17T12:24:24;19.30;99.90
2391;DHT22;22957;50.824;4.360;2024-03-17T12:26:53;19.90;99.90
2391;DHT22;22957;50.824;4.360;2024-03-17T12:29:35;18.90;99.90
2391;DHT22;22957;50.824;4.360;2024-03-17T12:32:18;19.50;99.90
2391;DHT22;22957;50.824;4.360;2024-03-17T12:34:45;20.20;99.90
2391;DHT22;22957;50.824;4.360;2024-03-17T12:37:19;19.90;99.90
2391;DHT22;22957;50.824;4.360;2024-03-17T12:39:45;19.90;99.90
2391;DHT22;22957;50.824;4.360;2024-03-17T12:42:16;18.70;99.90
2391;DHT22;22957;50.824;4.360;2024-03-17T12:44:50;18.60;99.90
2391;DHT22;22957;50.824;4.360;2024-03-17T12:47:20;19.30;99.90
2391;DHT22;22957;50.824;4.360;2024-03-17T12:50:08;19.80;99.90
2391;DHT22;22957;50.824;4.360;2024-03-17T12:52:35;19.80;99.90
2391;DHT22;22957;50.824;4.360;2024-03-17T12:57:50;18.70;99.90
2391;DHT22;22957;50.824;4.360;2024-03-17T13:00:35;18.80;99.90
2391;DHT22;22957;50.824;4.360;2024-03-17T13:03:05;19.00;99.90
2391;DHT22;22957;50.824;4.360;2024-03-17T13:05:31;18.50;99.90
2391;DHT22;22957;50.824;4.360;2024-03-17T13:07:57;18.60;99.90
2391;DHT22;22957;50.824;4.360;2024-03-17T13:10:26;18.90;99.90
2391;DHT22;22957;50.824;4.360;2024-03-17T13:13:03;19.20;99.90
2391;DHT22;22957;50.824;4.360;2024-03-17T13:15:30;19.30;99.90
2391;DHT22;22957;50.824;4.360;2024-03-17T13:18:00;19.30;99.90
2391;DHT22;22957;50.824;4.360;2024-03-17T13:20:26;18.50;99.90
2391;DHT22;22957;50.824;4.360;2024-03-17T13:22:52;18.10;99.90
2391;DHT22;22957;50.824;4.360;2024-03-17T13:25:19;18.20;99.90
2391;DHT22;22957;50.824;4.360;2024-03-17T13:27:47;18.40;99.90
2391;DHT22;22957;50.824;4.360;2024-03-17T13:30:14;18.20;99.90
2391;DHT22;22957;50.824;4.360;2024-03-17T13:32:40;17.90;99.90
2391;DHT22;22957;50.824;4.360;2024-03-17T13:35:20;17.90;99.90
2391;DHT22;22957;50.824;4.360;2024-03-17T13:37:47;18.10;99.90
2391;DHT22;22957;50.824;4.360;2024-03-17T13:40:17;18.10;99.90
2391;DHT22;22957;50.824;4.360;2024-03-17T13:42:51;18.20;99.90
2391;DHT22;22957;50.824;4.360;2024-03-17T13:45:18;18.50;99.90
2391;DHT22;22957;50.824;4.360;2024-03-17T13:47:56;18.30;99.90
2391;DHT22;22957;50.824;4.360;2024-03-17T13:50:23;17.70;99.90
2391;DHT22;22957;50.824;4.360;2024-03-17T13:52:48;18.00;99.90
2391;DHT22;22957;50.824;4.360;2024-03-17T13:55:16;18.10;99.90
2391;DHT22;22957;50.824;4.360;2024-03-17T13:57:45;18.30;99.90
2391;DHT22;22957;50.824;4.360;2024-03-17T14:00:11;18.20;99.90
2391;DHT22;22957;50.824;4.360;2024-03-17T14:02:45;18.30;99.90
2391;DHT22;22957;50.824;4.360;2024-03-17T14:05:15;18.40;99.90
2391;DHT22;22957;50.824;4.360;2024-03-17T14:07:42;18.20;99.90
2391;DHT22;22957;50.824;4.360;2024-03-17T14:10:09;18.10;99.90
2391;DHT22;22957;50.824;4.360;2024-03-17T14:12:35;18.10;99.90
2391;DHT22;22957;50.824;4.360;2024-03-17T14:15:02;17.90;99.90
2391;DHT22;22957;50.824;4.360;2024-03-17T14:17:29;18.00;99.90
2391;DHT22;22957;50.824;4.360;2024-03-17T14:19:55;17.90;99.90
2391;DHT22;22957;50.824;4.360;2024-03-17T14:22:20;17.30;99.90
2391;DHT22;22957;50.824;4.360;2024-03-17T14:24:46;17.40;99.90
2391;DHT22;22957;50.824;4.360;2024-03-17T14:27:12;16.70;99.90
2391;DHT22;22957;50.824;4.360;2024-03-17T14:29:38;16.80;99.90
2391;DHT22;22957;50.824;4.360;2024-03-17T14:32:04;16.80;99.90
2391;DHT22;22957;50.824;4.360;2024-03-17T14:34:30;16.90;99.90
2391;DHT22;22957;50.824;4.360;2024-03-17T14:37:03;16.50;99.90
2391;DHT22;22957;50.824;4.360;2024-03-17T14:39:32;16.30;99.90
2391;DHT22;22957;50.824;4.360;2024-03-17T14:41:58;16.50;99.90
2391;DHT22;22957;50.824;4.360;2024-03-17T14:44:24;16.50;99.90
2391;DHT22;22957;50.824;4.360;2024-03-17T14:46:50;16.60;99.90
2391;DHT22;22957;50.824;4.360;2024-03-17T14:49:21;16.20;99.90
2391;DHT22;22957;50.824;4.360;2024-03-17T14:51:47;16.60;99.90
2391;DHT22;22957;50.824;4.360;2024-03-17T14:54:15;16.30;99.90
2391;DHT22;22957;50.824;4.360;2024-03-17T14:56:42;16.50;99.90
2391;DHT22;22957;50.824;4.360;2024-03-17T14:59:07;16.70;99.90
2391;DHT22;22957;50.824;4.360;2024-03-17T15:01:34;16.70;99.90
2391;DHT22;22957;50.824;4.360;2024-03-17T15:03:59;16.80;99.90
2391;DHT22;22957;50.824;4.360;2024-03-17T15:06:25;16.70;99.90
2391;DHT22;22957;50.824;4.360;2024-03-17T15:08:52;16.60;99.90
2391;DHT22;22957;50.824;4.360;2024-03-17T15:11:18;16.40;99.90
2391;DHT22;22957;50.824;4.360;2024-03-17T15:13:44;16.20;99.90
2391;DHT22;22957;50.824;4.360;2024-03-17T15:16:10;16.40;99.90
2391;DHT22;22957;50.824;4.360;2024-03-17T15:18:37;16.40;99.90
2391;DHT22;22957;50.824;4.360;2024-03-17T15:21:03;15.70;99.90
2391;DHT22;22957;50.824;4.360;2024-03-17T15:23:32;15.60;99.90
2391;DHT22;22957;50.824;4.360;2024-03-17T15:26:02;15.20;99.90
2391;DHT22;22957;50.824;4.360;2024-03-17T15:28:39;15.60;99.90
2391;DHT22;22957;50.824;4.360;2024-03-17T15:31:08;15.90;99.90
2391;DHT22;22957;50.824;4.360;2024-03-17T15:33:34;15.90;99.90
2391;DHT22;22957;50.824;4.360;2024-03-17T15:36:05;15.90;99.90
2391;DHT22;22957;50.824;4.360;2024-03-17T15:38:32;16.10;99.90
2391;DHT22;22957;50.824;4.360;2024-03-17T15:41:07;16.00;99.90
2391;DHT22;22957;50.824;4.360;2024-03-17T15:43:39;15.40;99.90
2391;DHT22;22957;50.824;4.360;2024-03-17T15:46:17;15.70;99.90
2391;DHT22;22957;50.824;4.360;2024-03-17T15:48:44;15.50;99.90
2391;DHT22;22957;50.824;4.360;2024-03-17T15:51:10;15.30;99.90
2391;DHT22;22957;50.824;4.360;2024-03-17T15:53:36;15.00;99.90
2391;DHT22;22957;50.824;4.360;2024-03-17T15:56:03;15.60;99.90
2391;DHT22;22957;50.824;4.360;2024-03-17T15:58:30;15.30;99.90
2391;DHT22;22957;50.824;4.360;2024-03-17T16:00:56;15.60;99.90
2391;DHT22;22957;50.824;4.360;2024-03-17T16:03:30;15.10;99.90
2391;DHT22;22957;50.824;4.360;2024-03-17T16:06:01;15.20;99.90
2391;DHT22;22957;50.824;4.360;2024-03-17T16:08:28;15.40;99.90
2391;DHT22;22957;50.824;4.360;2024-03-17T16:10:58;14.90;99.90
2391;DHT22;22957;50.824;4.360;2024-03-17T16:13:24;15.20;99.90